sensor_id;sensor_type;location;lat;lon;timestamp;P1;durP1;ratioP1;P2;durP2;ratioP2
50605;SDS011;36557;53.572;10.170;2022-12-20T00:01:08;9.30;;;5.50;;
50605;SDS011;36557;53.572;10.170;2022-12-20T00:03:36;10.15;;;6.07;;
50605;SDS011;36557;53.572;10.170;2022-12-20T00:06:02;12.70;;;6.38;;
50605;SDS011;36557;53.572;10.170;2022-12-20T00:08:28;14.38;;;6.30;;
50605;SDS011;36557;53.572;10.170;2022-12-20T00:10:54;9.60;;;5.72;;
50605;SDS011;36557;53.572;10.170;2022-12-20T00:13:19;9.65;;;5.85;;
50605;SDS011;36557;53.572;10.170;2022-12-20T00:15:45;10.63;;;5.93;;
50605;SDS011;36557;53.572;10.170;2022-12-20T00:18:11;13.18;;;6.15;;
50605;SDS011;36557;53.572;10.170;2022-12-20T00:20:36;10.35;;;5.60;;
50605;SDS011;36557;53.572;10.170;2022-12-20T00:23:02;9.25;;;5.90;;
50605;SDS011;36557;53.572;10.170;2022-12-20T00:25:28;10.68;;;5.85;;
50605;SDS011;36557;53.572;10.170;2022-12-20T00:27:54;9.05;;;5.72;;
50605;SDS011;36557;53.572;10.170;2022-12-20T00:30:19;9.30;;;5.50;;
50605;SDS011;36557;53.572;10.170;2022-12-20T00:32:45;12.10;;;5.75;;
50605;SDS011;36557;53.572;10.170;2022-12-20T00:35:11;12.45;;;6.35;;
50605;SDS011;36557;53.572;10.170;2022-12-20T00:37:37;10.13;;;5.82;;
50605;SDS011;36557;53.572;10.170;2022-12-20T00:40:03;8.27;;;5.20;;
50605;SDS011;36557;53.572;10.170;2022-12-20T00:42:30;9.30;;;5.85;;
50605;SDS011;36557;53.572;10.170;2022-12-20T00:44:56;11.23;;;6.00;;
50605;SDS011;36557;53.572;10.170;2022-12-20T00:47:22;11.77;;;5.68;;
50605;SDS011;36557;53.572;10.170;2022-12-20T00:49:47;9.38;;;5.97;;
50605;SDS011;36557;53.572;10.170;2022-12-20T00:52:13;12.73;;;5.22;;
50605;SDS011;36557;53.572;10.170;2022-12-20T00:54:39;10.25;;;5.38;;
50605;SDS011;36557;53.572;10.170;2022-12-20T00:57:04;8.93;;;5.55;;
50605;SDS011;36557;53.572;10.170;2022-12-20T00:59:31;8.50;;;5.28;;
50605;SDS011;36557;53.572;10.170;2022-12-20T01:01:57;9.05;;;5.32;;
50605;SDS011;36557;53.572;10.170;2022-12-20T01:04:23;8.68;;;5.55;;
50605;SDS011;36557;53.572;10.170;2022-12-20T01:06:49;11.02;;;5.60;;
50605;SDS011;36557;53.572;10.170;2022-12-20T01:09:14;10.45;;;5.78;;
50605;SDS011;36557;53.572;10.170;2022-12-20T01:11:40;10.57;;;5.90;;
50605;SDS011;36557;53.572;10.170;2022-12-20T01:14:07;12.65;;;5.45;;
50605;SDS011;36557;53.572;10.170;2022-12-20T01:16:38;7.75;;;5.07;;
50605;SDS011;36557;53.572;10.170;2022-12-20T01:19:09;10.13;;;5.00;;
50605;SDS011;36557;53.572;10.170;2022-12-20T01:21:37;8.35;;;5.07;;
50605;SDS011;36557;53.572;10.170;2022-12-20T01:24:08;11.60;;;5.47;;
50605;SDS011;36557;53.572;10.170;2022-12-20T01:26:41;11.20;;;6.05;;
50605;SDS011;36557;53.572;10.170;2022-12-20T01:29:08;10.13;;;5.28;;
50605;SDS011;36557;53.572;10.170;2022-12-20T01:31:34;11.55;;;5.20;;
50605;SDS011;36557;53.572;10.170;2022-12-20T01:33:59;8.65;;;5.30;;
50605;SDS011;36557;53.572;10.170;2022-12-20T01:36:27;8.63;;;4.50;;
50605;SDS011;36557;53.572;10.170;2022-12-20T01:38:59;10.82;;;6.05;;
50605;SDS011;36557;53.572;10.170;2022-12-20T01:41:27;8.77;;;5.57;;
50605;SDS011;36557;53.572;10.170;2022-12-20T01:43:55;8.60;;;4.93;;
50605;SDS011;36557;53.572;10.170;2022-12-20T01:46:26;10.77;;;5.93;;
50605;SDS011;36557;53.572;10.170;2022-12-20T01:54:29;12.23;;;5.70;;
50605;SDS011;36557;53.572;10.170;2022-12-20T01:57:01;10.88;;;5.82;;
50605;SDS011;36557;53.572;10.170;2022-12-20T01:59:37;8.80;;;5.43;;
50605;SDS011;36557;53.572;10.170;2022-12-20T02:02:06;10.23;;;5.10;;
50605;SDS011;36557;53.572;10.170;2022-12-20T02:04:36;8.70;;;5.35;;
50605;SDS011;36557;53.572;10.170;2022-12-20T02:07:01;10.05;;;5.28;;
50605;SDS011;36557;53.572;10.170;2022-12-20T02:09:29;9.50;;;5.25;;
50605;SDS011;36557;53.572;10.170;2022-12-20T02:31:20;8.45;;;4.22;;
50605;SDS011;36557;53.572;10.170;2022-12-20T02:33:52;10.05;;;4.75;;
50605;SDS011;36557;53.572;10.170;2022-12-20T02:36:20;8.90;;;5.00;;
50605;SDS011;36557;53.572;10.170;2022-12-20T02:38:45;8.43;;;5.15;;
50605;SDS011;36557;53.572;10.170;2022-12-20T02:41:18;6.22;;;4.28;;
50605;SDS011;36557;53.572;10.170;2022-12-20T02:44:00;6.18;;;3.92;;
50605;SDS011;36557;53.572;10.170;2022-12-20T02:46:48;8.05;;;4.75;;
50605;SDS011;36557;53.572;10.170;2022-12-20T02:49:18;7.22;;;4.40;;
50605;SDS011;36557;53.572;10.170;2022-12-20T02:51:48;7.35;;;4.55;;
50605;SDS011;36557;53.572;10.170;2022-12-20T02:54:17;11.63;;;4.53;;
50605;SDS011;36557;53.572;10.170;2022-12-20T02:57:06;7.45;;;4.78;;
50605;SDS011;36557;53.572;10.170;2022-12-20T02:59:47;8.05;;;4.80;;
50605;SDS011;36557;53.572;10.170;2022-12-20T03:02:19;6.80;;;4.22;;
50605;SDS011;36557;53.572;10.170;2022-12-20T03:04:45;8.68;;;4.05;;
50605;SDS011;36557;53.572;10.170;2022-12-20T03:07:13;9.50;;;4.82;;
50605;SDS011;36557;53.572;10.170;2022-12-20T03:09:40;7.43;;;4.35;;
50605;SDS011;36557;53.572;10.170;2022-12-20T03:12:07;9.52;;;4.43;;
50605;SDS011;36557;53.572;10.170;2022-12-20T03:14:36;6.70;;;3.97;;
50605;SDS011;36557;53.572;10.170;2022-12-20T03:17:02;8.88;;;4.78;;
50605;SDS011;36557;53.572;10.170;2022-12-20T03:19:28;7.45;;;4.47;;
50605;SDS011;36557;53.572;10.170;2022-12-20T03:21:53;7.75;;;4.00;;
50605;SDS011;36557;53.572;10.170;2022-12-20T03:24:19;7.90;;;4.40;;
50605;SDS011;36557;53.572;10.170;2022-12-20T03:26:46;8.63;;;4.22;;
50605;SDS011;36557;53.572;10.170;2022-12-20T03:29:11;8.45;;;4.38;;
50605;SDS011;36557;53.572;10.170;2022-12-20T03:31:37;6.55;;;4.43;;
50605;SDS011;36557;53.572;10.170;2022-12-20T03:34:03;8.18;;;4.03;;
50605;SDS011;36557;53.572;10.170;2022-12-20T03:36:30;5.68;;;3.85;;
50605;SDS011;36557;53.572;10.170;2022-12-20T03:38:56;8.85;;;4.35;;
50605;SDS011;36557;53.572;10.170;2022-12-20T03:41:22;7.97;;;4.25;;
50605;SDS011;36557;53.572;10.170;2022-12-20T03:43:48;8.13;;;4.32;;
50605;SDS011;36557;53.572;10.170;2022-12-20T03:46:14;7.97;;;4.25;;
50605;SDS011;36557;53.572;10.170;2022-12-20T03:48:40;10.13;;;3.75;;
50605;SDS011;36557;53.572;10.170;2022-12-20T03:51:06;7.20;;;3.90;;
50605;SDS011;36557;53.572;10.170;2022-12-20T03:53:32;7.63;;;3.88;;
50605;SDS011;36557;53.572;10.170;2022-12-20T03:55:58;7.15;;;4.00;;
50605;SDS011;36557;53.572;10.170;2022-12-20T03:58:24;8.52;;;4.68;;
50605;SDS011;36557;53.572;10.170;2022-12-20T04:00:50;7.22;;;4.25;;
50605;SDS011;36557;53.572;10.170;2022-12-20T04:03:16;8.18;;;3.92;;
50605;SDS011;36557;53.572;10.170;2022-12-20T04:05:41;9.77;;;4.63;;
50605;SDS011;36557;53.572;10.170;2022-12-20T04:08:07;6.90;;;3.90;;
50605;SDS011;36557;53.572;10.170;2022-12-20T04:10:33;6.28;;;3.63;;
50605;SDS011;36557;53.572;10.170;2022-12-20T04:15:44;5.93;;;3.53;;
50605;SDS011;36557;53.572;10.170;2022-12-20T04:18:09;9.35;;;4.35;;
50605;SDS011;36557;53.572;10.170;2022-12-20T04:20:35;8.20;;;4.53;;
50605;SDS011;36557;53.572;10.170;2022-12-20T04:23:01;8.60;;;4.45;;
50605;SDS011;36557;53.572;10.170;2022-12-20T04:25:27;5.43;;;3.90;;
50605;SDS011;36557;53.572;10.170;2022-12-20T04:27:52;6.88;;;4.10;;
50605;SDS011;36557;53.572;10.170;2022-12-20T04:30:18;6.35;;;4.22;;
50605;SDS011;36557;53.572;10.170;2022-12-20T04:32:44;8.57;;;5.00;;
50605;SDS011;36557;53.572;10.170;2022-12-20T04:35:10;8.05;;;4.22;;
50605;SDS011;36557;53.572;10.170;2022-12-20T04:37:35;9.20;;;6.03;;
50605;SDS011;36557;53.572;10.170;2022-12-20T04:40:01;7.78;;;4.93;;
50605;SDS011;36557;53.572;10.170;2022-12-20T04:42:27;7.60;;;5.05;;
50605;SDS011;36557;53.572;10.170;2022-12-20T04:44:53;8.50;;;4.53;;
50605;SDS011;36557;53.572;10.170;2022-12-20T04:47:18;7.60;;;4.53;;
50605;SDS011;36557;53.572;10.170;2022-12-20T04:49:44;7.68;;;4.50;;
50605;SDS011;36557;53.572;10.170;2022-12-20T04:52:10;8.23;;;4.47;;
50605;SDS011;36557;53.572;10.170;2022-12-20T04:54:54;7.20;;;4.78;;
50605;SDS011;36557;53.572;10.170;2022-12-20T04:57:20;9.93;;;4.95;;
50605;SDS011;36557;53.572;10.170;2022-12-20T04:59:45;8.43;;;4.57;;
50605;SDS011;36557;53.572;10.170;2022-12-20T05:02:11;7.40;;;4.60;;
50605;SDS011;36557;53.572;10.170;2022-12-20T05:04:37;7.78;;;5.03;;
50605;SDS011;36557;53.572;10.170;2022-12-20T05:07:02;10.13;;;4.80;;
50605;SDS011;36557;53.572;10.170;2022-12-20T05:09:28;9.65;;;4.95;;
50605;SDS011;36557;53.572;10.170;2022-12-20T05:11:54;8.90;;;5.10;;
50605;SDS011;36557;53.572;10.170;2022-12-20T05:14:19;5.82;;;3.95;;
50605;SDS011;36557;53.572;10.170;2022-12-20T05:16:45;8.52;;;4.43;;
50605;SDS011;36557;53.572;10.170;2022-12-20T05:19:11;8.75;;;5.15;;
50605;SDS011;36557;53.572;10.170;2022-12-20T05:21:36;9.10;;;4.75;;
50605;SDS011;36557;53.572;10.170;2022-12-20T05:24:21;8.50;;;4.78;;
50605;SDS011;36557;53.572;10.170;2022-12-20T05:27:05;9.15;;;4.95;;
50605;SDS011;36557;53.572;10.170;2022-12-20T05:29:30;8.25;;;5.47;;
50605;SDS011;36557;53.572;10.170;2022-12-20T05:31:56;8.57;;;5.00;;
50605;SDS011;36557;53.572;10.170;2022-12-20T05:34:22;8.60;;;4.85;;
50605;SDS011;36557;53.572;10.170;2022-12-20T05:36:47;10.35;;;5.28;;
50605;SDS011;36557;53.572;10.170;2022-12-20T05:39:13;9.70;;;5.20;;
50605;SDS011;36557;53.572;10.170;2022-12-20T05:41:39;6.70;;;4.57;;
50605;SDS011;36557;53.572;10.170;2022-12-20T05:44:05;9.10;;;5.40;;
50605;SDS011;36557;53.572;10.170;2022-12-20T05:46:31;9.45;;;5.00;;
50605;SDS011;36557;53.572;10.170;2022-12-20T05:48:57;10.02;;;5.20;;
50605;SDS011;36557;53.572;10.170;2022-12-20T05:51:23;13.63;;;5.32;;
50605;SDS011;36557;53.572;10.170;2022-12-20T05:53:48;9.57;;;5.00;;
50605;SDS011;36557;53.572;10.170;2022-12-20T05:56:14;7.32;;;4.95;;
50605;SDS011;36557;53.572;10.170;2022-12-20T05:58:40;11.85;;;5.82;;
50605;SDS011;36557;53.572;10.170;2022-12-20T06:01:06;7.28;;;4.78;;
50605;SDS011;36557;53.572;10.170;2022-12-20T06:03:34;11.40;;;5.88;;
50605;SDS011;36557;53.572;10.170;2022-12-20T06:06:00;9.18;;;4.80;;
50605;SDS011;36557;53.572;10.170;2022-12-20T06:08:26;9.63;;;5.57;;
50605;SDS011;36557;53.572;10.170;2022-12-20T06:10:52;9.40;;;5.38;;
50605;SDS011;36557;53.572;10.170;2022-12-20T06:13:17;9.68;;;5.85;;
50605;SDS011;36557;53.572;10.170;2022-12-20T06:15:43;11.55;;;7.18;;
50605;SDS011;36557;53.572;10.170;2022-12-20T06:18:09;10.77;;;5.45;;
50605;SDS011;36557;53.572;10.170;2022-12-20T06:20:35;8.40;;;5.35;;
50605;SDS011;36557;53.572;10.170;2022-12-20T06:23:01;11.48;;;6.00;;
50605;SDS011;36557;53.572;10.170;2022-12-20T06:25:28;14.35;;;5.85;;
50605;SDS011;36557;53.572;10.170;2022-12-20T06:27:54;13.00;;;5.18;;
50605;SDS011;36557;53.572;10.170;2022-12-20T06:30:20;11.48;;;6.30;;
50605;SDS011;36557;53.572;10.170;2022-12-20T06:32:46;12.88;;;6.05;;
50605;SDS011;36557;53.572;10.170;2022-12-20T06:35:12;12.30;;;5.88;;
50605;SDS011;36557;53.572;10.170;2022-12-20T06:37:38;10.00;;;5.80;;
50605;SDS011;36557;53.572;10.170;2022-12-20T06:40:06;8.68;;;5.35;;
50605;SDS011;36557;53.572;10.170;2022-12-20T06:42:33;8.90;;;5.05;;
50605;SDS011;36557;53.572;10.170;2022-12-20T06:44:59;11.38;;;5.43;;
50605;SDS011;36557;53.572;10.170;2022-12-20T06:47:25;10.93;;;5.82;;
50605;SDS011;36557;53.572;10.170;2022-12-20T06:49:51;10.60;;;5.28;;
50605;SDS011;36557;53.572;10.170;2022-12-20T06:52:16;9.98;;;5.35;;
50605;SDS011;36557;53.572;10.170;2022-12-20T06:54:42;9.43;;;5.10;;
50605;SDS011;36557;53.572;10.170;2022-12-20T06:57:08;7.90;;;5.13;;
50605;SDS011;36557;53.572;10.170;2022-12-20T06:59:34;8.30;;;5.07;;
50605;SDS011;36557;53.572;10.170;2022-12-20T07:02:00;9.80;;;5.00;;
50605;SDS011;36557;53.572;10.170;2022-12-20T07:04:26;9.30;;;5.30;;
50605;SDS011;36557;53.572;10.170;2022-12-20T07:06:51;12.35;;;5.97;;
50605;SDS011;36557;53.572;10.170;2022-12-20T07:09:17;9.10;;;5.25;;
50605;SDS011;36557;53.572;10.170;2022-12-20T07:11:43;9.70;;;4.93;;
50605;SDS011;36557;53.572;10.170;2022-12-20T07:14:09;9.57;;;5.38;;
50605;SDS011;36557;53.572;10.170;2022-12-20T07:16:35;9.15;;;5.47;;
50605;SDS011;36557;53.572;10.170;2022-12-20T07:19:01;7.35;;;4.55;;
50605;SDS011;36557;53.572;10.170;2022-12-20T07:21:27;8.98;;;4.40;;
50605;SDS011;36557;53.572;10.170;2022-12-20T07:23:53;8.13;;;4.47;;
50605;SDS011;36557;53.572;10.170;2022-12-20T07:26:20;9.77;;;5.15;;
50605;SDS011;36557;53.572;10.170;2022-12-20T07:28:45;7.55;;;4.85;;
50605;SDS011;36557;53.572;10.170;2022-12-20T07:31:11;7.95;;;5.07;;
50605;SDS011;36557;53.572;10.170;2022-12-20T07:33:37;12.23;;;6.30;;
50605;SDS011;36557;53.572;10.170;2022-12-20T07:36:07;8.02;;;5.18;;
50605;SDS011;36557;53.572;10.170;2022-12-20T07:38:35;9.95;;;5.35;;
50605;SDS011;36557;53.572;10.170;2022-12-20T07:41:05;8.55;;;5.32;;
50605;SDS011;36557;53.572;10.170;2022-12-20T07:43:39;9.05;;;4.75;;
50605;SDS011;36557;53.572;10.170;2022-12-20T07:46:05;8.07;;;5.40;;
50605;SDS011;36557;53.572;10.170;2022-12-20T07:48:32;8.90;;;5.15;;
50605;SDS011;36557;53.572;10.170;2022-12-20T07:51:05;10.55;;;5.80;;
50605;SDS011;36557;53.572;10.170;2022-12-20T07:53:38;9.05;;;5.55;;
50605;SDS011;36557;53.572;10.170;2022-12-20T07:56:09;10.50;;;5.95;;
50605;SDS011;36557;53.572;10.170;2022-12-20T07:58:36;9.35;;;5.68;;
50605;SDS011;36557;53.572;10.170;2022-12-20T08:01:04;10.60;;;5.72;;
50605;SDS011;36557;53.572;10.170;2022-12-20T08:03:32;8.73;;;5.40;;
50605;SDS011;36557;53.572;10.170;2022-12-20T08:06:03;10.68;;;5.70;;
50605;SDS011;36557;53.572;10.170;2022-12-20T08:08:31;11.00;;;6.13;;
50605;SDS011;36557;53.572;10.170;2022-12-20T08:11:00;9.90;;;5.50;;
50605;SDS011;36557;53.572;10.170;2022-12-20T08:13:27;11.70;;;5.25;;
50605;SDS011;36557;53.572;10.170;2022-12-20T08:15:53;10.95;;;6.20;;
50605;SDS011;36557;53.572;10.170;2022-12-20T08:18:19;11.80;;;6.03;;
50605;SDS011;36557;53.572;10.170;2022-12-20T08:20:45;8.30;;;5.43;;
50605;SDS011;36557;53.572;10.170;2022-12-20T08:23:10;7.32;;;4.72;;
50605;SDS011;36557;53.572;10.170;2022-12-20T08:25:36;7.70;;;5.47;;
50605;SDS011;36557;53.572;10.170;2022-12-20T08:28:02;9.88;;;5.47;;
50605;SDS011;36557;53.572;10.170;2022-12-20T08:30:28;11.07;;;5.50;;
50605;SDS011;36557;53.572;10.170;2022-12-20T08:32:54;11.10;;;5.70;;
50605;SDS011;36557;53.572;10.170;2022-12-20T08:35:21;9.65;;;6.20;;
50605;SDS011;36557;53.572;10.170;2022-12-20T08:37:47;9.02;;;5.15;;
50605;SDS011;36557;53.572;10.170;2022-12-20T08:40:15;10.50;;;5.22;;
50605;SDS011;36557;53.572;10.170;2022-12-20T08:42:41;9.68;;;5.65;;
50605;SDS011;36557;53.572;10.170;2022-12-20T08:45:07;10.10;;;5.70;;
50605;SDS011;36557;53.572;10.170;2022-12-20T08:47:33;7.88;;;5.05;;
50605;SDS011;36557;53.572;10.170;2022-12-20T08:49:58;10.85;;;5.35;;
50605;SDS011;36557;53.572;10.170;2022-12-20T08:52:25;7.70;;;5.28;;
50605;SDS011;36557;53.572;10.170;2022-12-20T08:54:52;11.45;;;6.10;;
50605;SDS011;36557;53.572;10.170;2022-12-20T08:57:17;7.97;;;4.78;;
50605;SDS011;36557;53.572;10.170;2022-12-20T08:59:43;10.00;;;5.40;;
50605;SDS011;36557;53.572;10.170;2022-12-20T09:02:09;10.48;;;6.00;;
50605;SDS011;36557;53.572;10.170;2022-12-20T09:04:34;11.27;;;5.97;;
50605;SDS011;36557;53.572;10.170;2022-12-20T09:07:00;10.30;;;5.45;;
50605;SDS011;36557;53.572;10.170;2022-12-20T09:09:26;9.55;;;6.22;;
50605;SDS011;36557;53.572;10.170;2022-12-20T09:11:52;9.20;;;5.63;;
50605;SDS011;36557;53.572;10.170;2022-12-20T09:14:18;9.85;;;5.30;;
50605;SDS011;36557;53.572;10.170;2022-12-20T09:16:44;11.40;;;5.70;;
50605;SDS011;36557;53.572;10.170;2022-12-20T09:19:10;9.05;;;5.78;;
50605;SDS011;36557;53.572;10.170;2022-12-20T09:21:37;11.45;;;5.82;;
50605;SDS011;36557;53.572;10.170;2022-12-20T09:24:03;10.05;;;6.20;;
50605;SDS011;36557;53.572;10.170;2022-12-20T09:26:30;8.90;;;5.72;;
50605;SDS011;36557;53.572;10.170;2022-12-20T09:28:56;10.18;;;5.90;;
50605;SDS011;36557;53.572;10.170;2022-12-20T09:31:23;12.63;;;5.90;;
50605;SDS011;36557;53.572;10.170;2022-12-20T09:33:52;10.18;;;6.10;;
50605;SDS011;36557;53.572;10.170;2022-12-20T09:36:20;12.52;;;6.80;;
50605;SDS011;36557;53.572;10.170;2022-12-20T09:38:47;10.55;;;5.70;;
50605;SDS011;36557;53.572;10.170;2022-12-20T09:41:18;9.48;;;6.07;;
50605;SDS011;36557;53.572;10.170;2022-12-20T09:44:03;11.27;;;5.88;;
50605;SDS011;36557;53.572;10.170;2022-12-20T09:46:52;8.43;;;5.80;;
50605;SDS011;36557;53.572;10.170;2022-12-20T09:49:19;9.68;;;5.75;;
50605;SDS011;36557;53.572;10.170;2022-12-20T09:51:58;8.88;;;5.53;;
50605;SDS011;36557;53.572;10.170;2022-12-20T09:54:39;9.23;;;6.03;;
50605;SDS011;36557;53.572;10.170;2022-12-20T10:00:12;10.65;;;6.13;;
50605;SDS011;36557;53.572;10.170;2022-12-20T10:02:39;10.45;;;6.05;;
50605;SDS011;36557;53.572;10.170;2022-12-20T10:05:07;11.15;;;5.28;;
50605;SDS011;36557;53.572;10.170;2022-12-20T10:07:53;9.55;;;5.82;;
50605;SDS011;36557;53.572;10.170;2022-12-20T10:16:25;9.73;;;5.38;;
50605;SDS011;36557;53.572;10.170;2022-12-20T10:21:46;9.77;;;5.75;;
50605;SDS011;36557;53.572;10.170;2022-12-20T10:24:34;8.82;;;5.47;;
50605;SDS011;36557;53.572;10.170;2022-12-20T10:27:14;11.70;;;5.57;;
50605;SDS011;36557;53.572;10.170;2022-12-20T10:29:42;10.68;;;5.55;;
50605;SDS011;36557;53.572;10.170;2022-12-20T10:32:27;12.07;;;5.93;;
50605;SDS011;36557;53.572;10.170;2022-12-20T10:40:29;9.32;;;5.25;;
50605;SDS011;36557;53.572;10.170;2022-12-20T10:42:57;8.52;;;5.10;;
50605;SDS011;36557;53.572;10.170;2022-12-20T10:45:28;8.55;;;5.57;;
50605;SDS011;36557;53.572;10.170;2022-12-20T10:47:59;9.65;;;5.30;;
50605;SDS011;36557;53.572;10.170;2022-12-20T10:50:27;8.02;;;5.00;;
50605;SDS011;36557;53.572;10.170;2022-12-20T10:55:40;9.85;;;5.40;;
50605;SDS011;36557;53.572;10.170;2022-12-20T10:58:18;9.70;;;5.43;;
50605;SDS011;36557;53.572;10.170;2022-12-20T11:03:30;8.55;;;5.03;;
50605;SDS011;36557;53.572;10.170;2022-12-20T11:06:00;9.30;;;4.47;;
50605;SDS011;36557;53.572;10.170;2022-12-20T11:08:29;8.45;;;5.07;;
50605;SDS011;36557;53.572;10.170;2022-12-20T11:13:46;9.27;;;5.57;;
50605;SDS011;36557;53.572;10.170;2022-12-20T11:16:28;6.93;;;4.80;;
50605;SDS011;36557;53.572;10.170;2022-12-20T11:24:30;8.93;;;5.20;;
50605;SDS011;36557;53.572;10.170;2022-12-20T11:27:05;8.25;;;4.78;;
50605;SDS011;36557;53.572;10.170;2022-12-20T11:35:18;10.05;;;4.85;;
50605;SDS011;36557;53.572;10.170;2022-12-20T11:40:31;8.98;;;5.10;;
50605;SDS011;36557;53.572;10.170;2022-12-20T11:43:09;9.27;;;4.63;;
50605;SDS011;36557;53.572;10.170;2022-12-20T11:53:44;9.05;;;4.82;;
50605;SDS011;36557;53.572;10.170;2022-12-20T11:56:29;7.55;;;5.63;;
50605;SDS011;36557;53.572;10.170;2022-12-20T12:01:52;8.15;;;4.97;;
50605;SDS011;36557;53.572;10.170;2022-12-20T12:04:29;10.88;;;5.25;;
50605;SDS011;36557;53.572;10.170;2022-12-20T12:07:02;9.00;;;5.93;;
50605;SDS011;36557;53.572;10.170;2022-12-20T12:12:27;9.85;;;4.90;;
50605;SDS011;36557;53.572;10.170;2022-12-20T12:17:26;9.45;;;5.93;;
50605;SDS011;36557;53.572;10.170;2022-12-20T12:20:14;7.07;;;4.95;;
50605;SDS011;36557;53.572;10.170;2022-12-20T12:22:47;10.18;;;5.20;;
50605;SDS011;36557;53.572;10.170;2022-12-20T12:25:19;10.45;;;4.75;;
50605;SDS011;36557;53.572;10.170;2022-12-20T12:27:45;6.30;;;4.28;;
50605;SDS011;36557;53.572;10.170;2022-12-20T12:30:14;6.63;;;4.43;;
50605;SDS011;36557;53.572;10.170;2022-12-20T12:38:15;8.00;;;4.63;;
50605;SDS011;36557;53.572;10.170;2022-12-20T12:44:29;6.68;;;4.68;;
50605;SDS011;36557;53.572;10.170;2022-12-20T12:47:11;6.80;;;3.95;;
50605;SDS011;36557;53.572;10.170;2022-12-20T12:49:41;7.50;;;4.30;;
50605;SDS011;36557;53.572;10.170;2022-12-20T12:52:24;8.50;;;4.20;;
50605;SDS011;36557;53.572;10.170;2022-12-20T12:55:29;7.80;;;5.00;;
50605;SDS011;36557;53.572;10.170;2022-12-20T13:03:36;6.90;;;4.53;;
50605;SDS011;36557;53.572;10.170;2022-12-20T13:11:44;10.95;;;5.13;;
50605;SDS011;36557;53.572;10.170;2022-12-20T13:14:10;8.73;;;5.20;;
50605;SDS011;36557;53.572;10.170;2022-12-20T13:17:39;17.02;;;6.03;;
50605;SDS011;36557;53.572;10.170;2022-12-20T13:19:37;12.32;;;5.80;;
50605;SDS011;36557;53.572;10.170;2022-12-20T13:27:47;7.55;;;4.45;;
50605;SDS011;36557;53.572;10.170;2022-12-20T13:29:50;9.05;;;4.88;;
50605;SDS011;36557;53.572;10.170;2022-12-20T13:33:13;7.32;;;4.32;;
50605;SDS011;36557;53.572;10.170;2022-12-20T13:43:50;8.02;;;4.82;;
50605;SDS011;36557;53.572;10.170;2022-12-20T13:46:21;8.18;;;4.43;;
50605;SDS011;36557;53.572;10.170;2022-12-20T13:49:00;6.97;;;4.32;;
50605;SDS011;36557;53.572;10.170;2022-12-20T13:51:28;9.98;;;4.28;;
50605;SDS011;36557;53.572;10.170;2022-12-20T13:58:56;8.15;;;4.13;;
50605;SDS011;36557;53.572;10.170;2022-12-20T14:01:23;6.95;;;4.32;;
50605;SDS011;36557;53.572;10.170;2022-12-20T14:03:50;8.55;;;4.13;;
50605;SDS011;36557;53.572;10.170;2022-12-20T14:06:18;5.55;;;3.97;;
50605;SDS011;36557;53.572;10.170;2022-12-20T14:08:46;8.82;;;4.38;;
50605;SDS011;36557;53.572;10.170;2022-12-20T14:11:15;6.95;;;3.85;;
50605;SDS011;36557;53.572;10.170;2022-12-20T14:13:55;6.55;;;3.67;;
50605;SDS011;36557;53.572;10.170;2022-12-20T14:16:21;7.53;;;4.10;;
50605;SDS011;36557;53.572;10.170;2022-12-20T14:18:50;6.10;;;3.40;;
50605;SDS011;36557;53.572;10.170;2022-12-20T14:21:25;8.43;;;3.53;;
50605;SDS011;36557;53.572;10.170;2022-12-20T14:23:53;7.15;;;3.00;;
50605;SDS011;36557;53.572;10.170;2022-12-20T14:26:23;8.93;;;3.90;;
50605;SDS011;36557;53.572;10.170;2022-12-20T14:28:52;7.15;;;3.60;;
50605;SDS011;36557;53.572;10.170;2022-12-20T14:31:24;7.15;;;3.83;;
50605;SDS011;36557;53.572;10.170;2022-12-20T14:36:39;7.88;;;3.72;;
50605;SDS011;36557;53.572;10.170;2022-12-20T14:39:31;9.27;;;4.00;;
50605;SDS011;36557;53.572;10.170;2022-12-20T14:44:32;6.10;;;3.97;;
50605;SDS011;36557;53.572;10.170;2022-12-20T14:49:47;5.25;;;3.17;;
50605;SDS011;36557;53.572;10.170;2022-12-20T14:52:25;6.88;;;4.07;;
50605;SDS011;36557;53.572;10.170;2022-12-20T14:55:01;9.65;;;5.25;;
50605;SDS011;36557;53.572;10.170;2022-12-20T15:00:11;7.68;;;3.75;;
50605;SDS011;36557;53.572;10.170;2022-12-20T15:08:17;7.03;;;3.88;;
50605;SDS011;36557;53.572;10.170;2022-12-20T15:13:40;6.20;;;3.88;;
50605;SDS011;36557;53.572;10.170;2022-12-20T15:18:36;8.10;;;3.97;;
50605;SDS011;36557;53.572;10.170;2022-12-20T15:21:05;7.53;;;4.22;;
50605;SDS011;36557;53.572;10.170;2022-12-20T15:23:40;7.60;;;4.38;;
50605;SDS011;36557;53.572;10.170;2022-12-20T15:26:11;9.43;;;4.38;;
50605;SDS011;36557;53.572;10.170;2022-12-20T15:28:40;9.65;;;4.45;;
50605;SDS011;36557;53.572;10.170;2022-12-20T15:31:08;9.50;;;4.38;;
50605;SDS011;36557;53.572;10.170;2022-12-20T15:33:37;11.90;;;3.90;;
50605;SDS011;36557;53.572;10.170;2022-12-20T15:36:03;9.13;;;4.57;;
50605;SDS011;36557;53.572;10.170;2022-12-20T15:38:29;9.43;;;4.55;;
50605;SDS011;36557;53.572;10.170;2022-12-20T15:40:58;8.93;;;4.47;;
50605;SDS011;36557;53.572;10.170;2022-12-20T15:43:27;12.93;;;4.60;;
50605;SDS011;36557;53.572;10.170;2022-12-20T15:45:55;8.18;;;4.20;;
50605;SDS011;36557;53.572;10.170;2022-12-20T15:48:21;10.20;;;4.40;;
50605;SDS011;36557;53.572;10.170;2022-12-20T15:50:49;11.35;;;4.18;;
50605;SDS011;36557;53.572;10.170;2022-12-20T15:53:24;9.20;;;4.40;;
50605;SDS011;36557;53.572;10.170;2022-12-20T15:55:56;7.78;;;4.18;;
50605;SDS011;36557;53.572;10.170;2022-12-20T15:58:22;6.18;;;4.10;;
50605;SDS011;36557;53.572;10.170;2022-12-20T16:00:49;5.88;;;4.07;;
50605;SDS011;36557;53.572;10.170;2022-12-20T16:03:22;8.88;;;4.32;;
50605;SDS011;36557;53.572;10.170;2022-12-20T16:05:50;9.50;;;6.03;;
50605;SDS011;36557;53.572;10.170;2022-12-20T16:08:16;12.75;;;6.93;;
50605;SDS011;36557;53.572;10.170;2022-12-20T16:10:45;16.73;;;6.97;;
50605;SDS011;36557;53.572;10.170;2022-12-20T16:13:13;11.00;;;6.03;;
50605;SDS011;36557;53.572;10.170;2022-12-20T16:15:45;9.43;;;4.72;;
50605;SDS011;36557;53.572;10.170;2022-12-20T16:18:11;8.55;;;5.18;;
50605;SDS011;36557;53.572;10.170;2022-12-20T16:20:37;13.00;;;7.18;;
50605;SDS011;36557;53.572;10.170;2022-12-20T16:23:03;8.23;;;5.53;;
50605;SDS011;36557;53.572;10.170;2022-12-20T16:25:32;8.35;;;5.47;;
50605;SDS011;36557;53.572;10.170;2022-12-20T16:28:00;12.77;;;5.50;;
50605;SDS011;36557;53.572;10.170;2022-12-20T16:30:27;6.75;;;4.65;;
50605;SDS011;36557;53.572;10.170;2022-12-20T16:32:53;10.20;;;5.03;;
50605;SDS011;36557;53.572;10.170;2022-12-20T16:37:53;10.13;;;5.32;;
50605;SDS011;36557;53.572;10.170;2022-12-20T16:40:30;9.10;;;4.60;;
50605;SDS011;36557;53.572;10.170;2022-12-20T16:42:57;10.52;;;4.97;;
50605;SDS011;36557;53.572;10.170;2022-12-20T16:45:27;13.10;;;5.03;;
50605;SDS011;36557;53.572;10.170;2022-12-20T16:47:54;9.52;;;4.35;;
50605;SDS011;36557;53.572;10.170;2022-12-20T16:50:21;8.23;;;4.88;;
50605;SDS011;36557;53.572;10.170;2022-12-20T16:52:48;8.77;;;5.00;;
50605;SDS011;36557;53.572;10.170;2022-12-20T16:55:25;8.55;;;4.57;;
50605;SDS011;36557;53.572;10.170;2022-12-20T16:57:52;7.72;;;4.25;;
50605;SDS011;36557;53.572;10.170;2022-12-20T17:00:23;5.32;;;3.75;;
50605;SDS011;36557;53.572;10.170;2022-12-20T17:02:50;8.13;;;4.57;;
50605;SDS011;36557;53.572;10.170;2022-12-20T17:05:27;7.90;;;4.85;;
50605;SDS011;36557;53.572;10.170;2022-12-20T17:07:58;8.25;;;4.70;;